sensor_id;sensor_type;location;lat;lon;timestamp;pressure;altitude;pressure_sealevel;temperature;humidity
64200;BME280;50516;52.272;5.136;2023-08-06T00:00:38;100432.69;;;16.57;100.00
64200;BME280;50516;52.272;5.136;2023-08-06T00:03:03;100441.16;;;16.61;99.78
64200;BME280;50516;52.272;5.136;2023-08-06T00:05:29;100439.53;;;16.60;99.69
64200;BME280;50516;52.272;5.136;2023-08-06T00:07:54;100442.94;;;16.48;100.00
64200;BME280;50516;52.272;5.136;2023-08-06T00:10:19;100443.41;;;16.50;99.92
64200;BME280;50516;52.272;5.136;2023-08-06T00:12:45;100440.00;;;16.53;100.00
64200;BME280;50516;52.272;5.136;2023-08-06T00:15:11;100452.25;;;16.52;99.98
64200;BME280;50516;52.272;5.136;2023-08-06T00:17:36;100441.13;;;16.43;100.00
64200;BME280;50516;52.272;5.136;2023-08-06T00:20:03;100450.94;;;16.50;100.00
64200;BME280;50516;52.272;5.136;2023-08-06T00:22:34;100450.13;;;16.49;100.00
64200;BME280;50516;52.272;5.136;2023-08-06T00:25:00;100443.09;;;16.52;99.97
64200;BME280;50516;52.272;5.136;2023-08-06T00:27:25;100435.94;;;16.51;100.00
64200;BME280;50516;52.272;5.136;2023-08-06T00:29:51;100438.56;;;16.47;100.00
64200;BME280;50516;52.272;5.136;2023-08-06T00:32:17;100440.66;;;16.50;100.00
64200;BME280;50516;52.272;5.136;2023-08-06T00:34:42;100438.03;;;16.45;100.00
64200;BME280;50516;52.272;5.136;2023-08-06T00:37:08;100433.50;;;16.49;100.00
64200;BME280;50516;52.272;5.136;2023-08-06T00:39:33;100440.81;;;16.45;100.00
64200;BME280;50516;52.272;5.136;2023-08-06T00:41:58;100437.56;;;16.52;99.88
64200;BME280;50516;52.272;5.136;2023-08-06T00:44:24;100442.28;;;16.42;99.94
64200;BME280;50516;52.272;5.136;2023-08-06T00:46:49;100434.31;;;16.50;100.00
64200;BME280;50516;52.272;5.136;2023-08-06T00:49:15;100439.03;;;16.49;99.66
64200;BME280;50516;52.272;5.136;2023-08-06T00:51:41;100435.59;;;16.43;99.71
64200;BME280;50516;52.272;5.136;2023-08-06T00:54:07;100435.59;;;16.43;99.91
64200;BME280;50516;52.272;5.136;2023-08-06T00:56:34;100438.88;;;16.46;100.00
64200;BME280;50516;52.272;5.136;2023-08-06T00:59:01;100438.41;;;16.52;99.69
64200;BME280;50516;52.272;5.136;2023-08-06T01:01:26;100435.09;;;16.50;99.65
64200;BME280;50516;52.272;5.136;2023-08-06T01:03:53;100436.09;;;16.54;99.70
64200;BME280;50516;52.272;5.136;2023-08-06T01:06:29;100441.00;;;16.57;99.47
64200;BME280;50516;52.272;5.136;2023-08-06T01:09:08;100428.59;;;16.46;99.63
64200;BME280;50516;52.272;5.136;2023-08-06T01:14:28;100438.03;;;16.45;99.68
64200;BME280;50516;52.272;5.136;2023-08-06T01:16:56;100436.25;;;16.49;99.75
64200;BME280;50516;52.272;5.136;2023-08-06T01:19:23;100428.91;;;16.53;99.45
64200;BME280;50516;52.272;5.136;2023-08-06T01:21:48;100429.13;;;16.57;99.19
64200;BME280;50516;52.272;5.136;2023-08-06T01:24:14;100431.69;;;16.53;99.71
64200;BME280;50516;52.272;5.136;2023-08-06T01:26:48;100427.94;;;16.49;99.45
64200;BME280;50516;52.272;5.136;2023-08-06T01:29:26;100427.59;;;16.42;99.75
64200;BME280;50516;52.272;5.136;2023-08-06T01:31:55;100428.28;;;16.48;99.82
64200;BME280;50516;52.272;5.136;2023-08-06T01:34:23;100438.03;;;16.45;99.87
64200;BME280;50516;52.272;5.136;2023-08-06T01:36:50;100440.97;;;16.49;99.88
64200;BME280;50516;52.272;5.136;2023-08-06T01:39:15;100436.09;;;16.54;99.54
64200;BME280;50516;52.272;5.136;2023-08-06T01:41:41;100437.88;;;16.50;99.45
64200;BME280;50516;52.272;5.136;2023-08-06T01:44:06;100431.69;;;16.45;99.35
64200;BME280;50516;52.272;5.136;2023-08-06T01:46:31;100435.25;;;16.45;99.62
64200;BME280;50516;52.272;5.136;2023-08-06T01:48:57;100445.16;;;16.29;100.00
64200;BME280;50516;52.272;5.136;2023-08-06T01:51:22;100438.81;;;16.28;100.00
64200;BME280;50516;52.272;5.136;2023-08-06T01:53:48;100435.88;;;16.33;100.00
64200;BME280;50516;52.272;5.136;2023-08-06T01:56:13;100441.44;;;16.33;100.00
64200;BME280;50516;52.272;5.136;2023-08-06T01:58:38;100432.28;;;16.24;100.00
64200;BME280;50516;52.272;5.136;2023-08-06T02:01:04;100434.38;;;16.18;100.00
64200;BME280;50516;52.272;5.136;2023-08-06T02:03:29;100435.19;;;16.19;100.00
64200;BME280;50516;52.272;5.136;2023-08-06T02:05:54;100438.13;;;16.22;100.00
64200;BME280;50516;52.272;5.136;2023-08-06T02:08:20;100445.00;;;16.25;100.00
64200;BME280;50516;52.272;5.136;2023-08-06T02:10:45;100443.41;;;16.33;100.00
64200;BME280;50516;52.272;5.136;2023-08-06T02:13:11;100445.16;;;16.29;100.00
64200;BME280;50516;52.272;5.136;2023-08-06T02:15:42;100442.88;;;16.31;100.00
64200;BME280;50516;52.272;5.136;2023-08-06T02:18:07;100442.06;;;16.21;100.00
64200;BME280;50516;52.272;5.136;2023-08-06T02:20:32;100441.06;;;16.26;100.00
64200;BME280;50516;52.272;5.136;2023-08-06T02:22:58;100450.84;;;16.23;100.00
64200;BME280;50516;52.272;5.136;2023-08-06T02:25:24;100456.59;;;16.36;100.00
64200;BME280;50516;52.272;5.136;2023-08-06T02:27:49;100447.63;;;16.30;100.00
64200;BME280;50516;52.272;5.136;2023-08-06T02:30:14;100445.31;;;16.32;100.00
64200;BME280;50516;52.272;5.136;2023-08-06T02:32:39;100441.13;;;16.35;100.00
64200;BME280;50516;52.272;5.136;2023-08-06T02:35:05;100441.59;;;16.37;100.00
64200;BME280;50516;52.272;5.136;2023-08-06T02:37:33;100438.19;;;16.40;100.00
64200;BME280;50516;52.272;5.136;2023-08-06T02:39:59;100442.88;;;16.31;100.00
64200;BME280;50516;52.272;5.136;2023-08-06T02:42:24;100435.25;;;16.36;100.00
64200;BME280;50516;52.272;5.136;2023-08-06T02:44:52;100433.78;;;16.39;100.00
64200;BME280;50516;52.272;5.136;2023-08-06T02:47:20;100439.63;;;16.37;100.00
64200;BME280;50516;52.272;5.136;2023-08-06T02:49:45;100436.22;;;16.40;100.00
64200;BME280;50516;52.272;5.136;2023-08-06T02:52:10;100441.13;;;16.35;100.00
64200;BME280;50516;52.272;5.136;2023-08-06T02:54:36;100433.59;;;16.35;100.00
64200;BME280;50516;52.272;5.136;2023-08-06T02:57:01;100436.69;;;16.34;100.00
64200;BME280;50516;52.272;5.136;2023-08-06T02:59:26;100432.63;;;16.31;100.00
64200;BME280;50516;52.272;5.136;2023-08-06T03:01:52;100431.69;;;16.36;100.00
64200;BME280;50516;52.272;5.136;2023-08-06T03:04:17;100434.94;;;16.38;100.00
64200;BME280;50516;52.272;5.136;2023-08-06T03:06:43;100434.13;;;16.46;100.00
64200;BME280;50516;52.272;5.136;2023-08-06T03:09:08;100427.09;;;16.40;100.00
64200;BME280;50516;52.272;5.136;2023-08-06T03:11:34;100432.50;;;16.45;100.00
64200;BME280;50516;52.272;5.136;2023-08-06T03:13:59;100431.03;;;16.48;99.97
64200;BME280;50516;52.272;5.136;2023-08-06T03:16:24;100435.44;;;16.49;100.00
64200;BME280;50516;52.272;5.136;2023-08-06T03:18:50;100427.63;;;16.51;100.00
64200;BME280;50516;52.272;5.136;2023-08-06T03:21:15;100429.56;;;16.50;100.00
64200;BME280;50516;52.272;5.136;2023-08-06T03:23:40;100428.75;;;16.50;100.00
64200;BME280;50516;52.272;5.136;2023-08-06T03:26:06;100432.34;;;16.50;99.92
64200;BME280;50516;52.272;5.136;2023-08-06T03:28:31;100427.47;;;16.47;100.00
64200;BME280;50516;52.272;5.136;2023-08-06T03:31:03;100437.41;;;16.48;100.00
64200;BME280;50516;52.272;5.136;2023-08-06T03:33:29;100432.84;;;16.52;100.00
64200;BME280;50516;52.272;5.136;2023-08-06T03:35:55;100434.47;;;16.53;100.00
64200;BME280;50516;52.272;5.136;2023-08-06T03:38:20;100435.09;;;16.50;100.00
64200;BME280;50516;52.272;5.136;2023-08-06T03:40:46;100431.69;;;16.53;100.00
64200;BME280;50516;52.272;5.136;2023-08-06T03:43:12;100437.56;;;16.52;100.00
64200;BME280;50516;52.272;5.136;2023-08-06T03:45:37;100433.34;;;16.54;100.00
64200;BME280;50516;52.272;5.136;2023-08-06T03:48:03;100426.00;;;16.50;100.00
64200;BME280;50516;52.272;5.136;2023-08-06T03:50:28;100436.25;;;16.49;100.00
64200;BME280;50516;52.272;5.136;2023-08-06T03:52:53;100432.34;;;16.50;100.00
64200;BME280;50516;52.272;5.136;2023-08-06T03:55:19;100434.13;;;16.46;100.00
64200;BME280;50516;52.272;5.136;2023-08-06T03:57:44;100437.06;;;16.41;100.00
64200;BME280;50516;52.272;5.136;2023-08-06T04:00:10;100432.31;;;16.41;100.00
64200;BME280;50516;52.272;5.136;2023-08-06T04:02:35;100425.13;;;16.40;100.00
64200;BME280;50516;52.272;5.136;2023-08-06T04:05:01;100433.13;;;16.42;100.00
64200;BME280;50516;52.272;5.136;2023-08-06T04:07:26;100429.72;;;16.36;100.00
64200;BME280;50516;52.272;5.136;2023-08-06T04:09:57;100437.69;;;16.38;100.00
64200;BME280;50516;52.272;5.136;2023-08-06T04:12:23;100444.19;;;16.33;100.00
64200;BME280;50516;52.272;5.136;2023-08-06T04:14:49;100441.44;;;16.33;100.00
64200;BME280;50516;52.272;5.136;2023-08-06T04:17:15;100446.34;;;16.36;100.00
64200;BME280;50516;52.272;5.136;2023-08-06T04:19:40;100444.53;;;16.32;100.00
64200;BME280;50516;52.272;5.136;2023-08-06T04:22:05;100447.94;;;16.37;100.00
64200;BME280;50516;52.272;5.136;2023-08-06T04:24:31;100448.78;;;16.38;100.00
64200;BME280;50516;52.272;5.136;2023-08-06T04:26:57;100450.22;;;16.35;100.00
64200;BME280;50516;52.272;5.136;2023-08-06T04:29:22;100446.25;;;16.19;100.00
64200;BME280;50516;52.272;5.136;2023-08-06T04:31:47;100447.44;;;16.27;100.00
64200;BME280;50516;52.272;5.136;2023-08-06T04:34:13;100449.72;;;16.24;100.00
64200;BME280;50516;52.272;5.136;2023-08-06T04:36:38;100457.03;;;16.29;100.00
64200;BME280;50516;52.272;5.136;2023-08-06T04:39:04;100456.72;;;16.31;100.00
64200;BME280;50516;52.272;5.136;2023-08-06T04:41:29;100453.47;;;16.29;100.00
64200;BME280;50516;52.272;5.136;2023-08-06T04:43:54;100465.56;;;16.33;100.00
64200;BME280;50516;52.272;5.136;2023-08-06T04:46:21;100465.56;;;16.33;100.00
64200;BME280;50516;52.272;5.136;2023-08-06T04:48:46;100466.84;;;16.35;100.00
64200;BME280;50516;52.272;5.136;2023-08-06T04:51:12;100460.34;;;16.40;100.00
64200;BME280;50516;52.272;5.136;2023-08-06T04:53:37;100463.63;;;16.42;100.00
64200;BME280;50516;52.272;5.136;2023-08-06T04:56:02;100471.94;;;16.42;100.00
64200;BME280;50516;52.272;5.136;2023-08-06T04:58:28;100473.03;;;16.32;100.00
64200;BME280;50516;52.272;5.136;2023-08-06T05:00:53;100474.69;;;16.33;100.00
64200;BME280;50516;52.272;5.136;2023-08-06T05:03:19;100474.22;;;16.40;100.00
64200;BME280;50516;52.272;5.136;2023-08-06T05:05:46;100477.00;;;16.49;100.00
64200;BME280;50516;52.272;5.136;2023-08-06T05:08:14;100465.78;;;16.54;100.00
64200;BME280;50516;52.272;5.136;2023-08-06T05:10:42;100475.72;;;16.55;100.00
64200;BME280;50516;52.272;5.136;2023-08-06T05:13:08;100476.22;;;16.57;100.00
64200;BME280;50516;52.272;5.136;2023-08-06T05:15:33;100475.91;;;16.58;100.00
64200;BME280;50516;52.272;5.136;2023-08-06T05:17:58;100478.16;;;16.56;100.00
64200;BME280;50516;52.272;5.136;2023-08-06T05:20:24;100486.63;;;16.51;100.00
64200;BME280;50516;52.272;5.136;2023-08-06T05:22:49;100484.88;;;16.55;100.00
64200;BME280;50516;52.272;5.136;2023-08-06T05:25:14;100495.44;;;16.53;100.00
64200;BME280;50516;52.272;5.136;2023-08-06T05:27:40;100490.09;;;16.57;100.00
64200;BME280;50516;52.272;5.136;2023-08-06T05:30:06;100502.84;;;16.67;100.00
64200;BME280;50516;52.272;5.136;2023-08-06T05:32:31;100499.25;;;16.75;100.00
64200;BME280;50516;52.272;5.136;2023-08-06T05:34:56;100498.78;;;16.82;100.00
64200;BME280;50516;52.272;5.136;2023-08-06T05:37:22;100501.59;;;16.90;100.00
64200;BME280;50516;52.272;5.136;2023-08-06T05:39:47;100502.84;;;16.84;100.00
64200;BME280;50516;52.272;5.136;2023-08-06T05:42:12;100515.47;;;16.90;100.00
64200;BME280;50516;52.272;5.136;2023-08-06T05:44:38;100509.75;;;16.95;100.00
64200;BME280;50516;52.272;5.136;2023-08-06T05:47:03;100512.88;;;17.03;100.00
64200;BME280;50516;52.272;5.136;2023-08-06T05:49:29;100511.75;;;17.04;100.00
64200;BME280;50516;52.272;5.136;2023-08-06T05:51:54;100509.63;;;17.01;100.00
64200;BME280;50516;52.272;5.136;2023-08-06T05:54:19;100510.06;;;16.85;100.00
64200;BME280;50516;52.272;5.136;2023-08-06T05:56:45;100513.94;;;16.75;100.00
64200;BME280;50516;52.272;5.136;2023-08-06T05:59:10;100515.75;;;16.80;100.00
64200;BME280;50516;52.272;5.136;2023-08-06T06:01:35;100517.50;;;16.67;100.00
64200;BME280;50516;52.272;5.136;2023-08-06T06:04:01;100518.06;;;16.38;100.00
64200;BME280;50516;52.272;5.136;2023-08-06T06:06:26;100531.06;;;16.37;100.00
64200;BME280;50516;52.272;5.136;2023-08-06T06:08:52;100536.44;;;16.34;100.00
64200;BME280;50516;52.272;5.136;2023-08-06T06:11:17;100536.03;;;16.18;100.00
64200;BME280;50516;52.272;5.136;2023-08-06T06:13:47;100533.41;;;16.13;100.00
64200;BME280;50516;52.272;5.136;2023-08-06T06:16:12;100529.50;;;16.14;100.00
64200;BME280;50516;52.272;5.136;2023-08-06T06:18:37;100537.69;;;16.19;100.00
64200;BME280;50516;52.272;5.136;2023-08-06T06:21:03;100534.31;;;15.99;100.00
64200;BME280;50516;52.272;5.136;2023-08-06T06:23:28;100531.53;;;15.99;100.00
64200;BME280;50516;52.272;5.136;2023-08-06T06:25:53;100533.44;;;15.90;100.00
64200;BME280;50516;52.272;5.136;2023-08-06T06:28:19;100541.06;;;15.84;100.00
64200;BME280;50516;52.272;5.136;2023-08-06T06:30:44;100554.78;;;15.90;100.00
64200;BME280;50516;52.272;5.136;2023-08-06T06:33:10;100552.03;;;15.98;100.00
64200;BME280;50516;52.272;5.136;2023-08-06T06:35:35;100553.50;;;15.96;100.00
64200;BME280;50516;52.272;5.136;2023-08-06T06:38:01;100555.13;;;15.97;100.00
64200;BME280;50516;52.272;5.136;2023-08-06T06:40:26;100571.94;;;16.00;100.00
64200;BME280;50516;52.272;5.136;2023-08-06T06:42:52;100575.72;;;15.82;100.00
64200;BME280;50516;52.272;5.136;2023-08-06T06:45:17;100567.91;;;15.84;100.00
64200;BME280;50516;52.272;5.136;2023-08-06T06:47:42;100572.34;;;15.71;100.00
64200;BME280;50516;52.272;5.136;2023-08-06T06:50:08;100582.53;;;15.62;100.00
64200;BME280;50516;52.272;5.136;2023-08-06T06:52:33;100578.47;;;15.45;100.00
64200;BME280;50516;52.272;5.136;2023-08-06T06:54:59;100586.66;;;15.50;100.00
64200;BME280;50516;52.272;5.136;2023-08-06T06:57:24;100580.63;;;15.48;100.00
64200;BME280;50516;52.272;5.136;2023-08-06T06:59:49;100578.44;;;15.59;100.00
64200;BME280;50516;52.272;5.136;2023-08-06T07:02:15;100588.28;;;15.51;100.00
64200;BME280;50516;52.272;5.136;2023-08-06T07:04:40;100583.78;;;15.56;100.00
64200;BME280;50516;52.272;5.136;2023-08-06T07:07:05;100583.28;;;15.54;100.00
64200;BME280;50516;52.272;5.136;2023-08-06T07:09:31;100590.94;;;15.57;100.00
64200;BME280;50516;52.272;5.136;2023-08-06T07:11:56;100579.13;;;15.42;100.00
64200;BME280;50516;52.272;5.136;2023-08-06T07:14:21;100579.13;;;15.42;100.00
64200;BME280;50516;52.272;5.136;2023-08-06T07:16:46;100585.97;;;15.45;100.00
64200;BME280;50516;52.272;5.136;2023-08-06T07:19:12;100587.19;;;15.39;100.00
64200;BME280;50516;52.272;5.136;2023-08-06T07:21:37;100593.78;;;15.29;100.00
64200;BME280;50516;52.272;5.136;2023-08-06T07:24:03;100596.44;;;15.34;100.00
64200;BME280;50516;52.272;5.136;2023-08-06T07:26:28;100602.06;;;15.29;100.00
64200;BME280;50516;52.272;5.136;2023-08-06T07:28:53;100609.63;;;15.37;100.00
64200;BME280;50516;52.272;5.136;2023-08-06T07:31:19;100608.34;;;15.21;100.00
64200;BME280;50516;52.272;5.136;2023-08-06T07:33:44;100613.38;;;15.19;100.00
64200;BME280;50516;52.272;5.136;2023-08-06T07:36:14;100615.72;;;15.11;100.00
64200;BME280;50516;52.272;5.136;2023-08-06T07:38:40;100611.94;;;15.21;100.00
64200;BME280;50516;52.272;5.136;2023-08-06T07:41:05;100619.81;;;15.28;100.00
64200;BME280;50516;52.272;5.136;2023-08-06T07:43:31;100623.81;;;15.08;100.00
64200;BME280;50516;52.272;5.136;2023-08-06T07:46:00;100610.72;;;15.13;100.00
64200;BME280;50516;52.272;5.136;2023-08-06T07:48:26;100616.19;;;15.41;100.00
64200;BME280;50516;52.272;5.136;2023-08-06T07:50:55;100620.25;;;15.58;100.00
64200;BME280;50516;52.272;5.136;2023-08-06T07:53:21;100617.00;;;15.42;100.00
64200;BME280;50516;52.272;5.136;2023-08-06T07:55:49;100619.88;;;15.50;100.00
64200;BME280;50516;52.272;5.136;2023-08-06T07:58:15;100630.31;;;15.54;100.00
64200;BME280;50516;52.272;5.136;2023-08-06T08:00:40;100613.59;;;15.59;100.00
64200;BME280;50516;52.272;5.136;2023-08-06T08:03:07;100614.53;;;15.54;100.00
64200;BME280;50516;52.272;5.136;2023-08-06T08:05:33;100622.22;;;15.57;100.00
64200;BME280;50516;52.272;5.136;2023-08-06T08:07:58;100625.44;;;15.73;100.00
64200;BME280;50516;52.272;5.136;2023-08-06T08:10:23;100625.47;;;15.59;100.00
64200;BME280;50516;52.272;5.136;2023-08-06T08:12:48;100623.31;;;15.70;100.00
64200;BME280;50516;52.272;5.136;2023-08-06T08:15:14;100632.41;;;15.84;100.00
64200;BME280;50516;52.272;5.136;2023-08-06T08:17:39;100630.63;;;15.88;100.00
64200;BME280;50516;52.272;5.136;2023-08-06T08:20:05;100630.34;;;15.90;100.00
64200;BME280;50516;52.272;5.136;2023-08-06T08:22:30;100633.28;;;15.94;100.00
64200;BME280;50516;52.272;5.136;2023-08-06T08:24:56;100637.94;;;15.84;100.00
64200;BME280;50516;52.272;5.136;2023-08-06T08:27:21;100643.38;;;15.90;100.00
64200;BME280;50516;52.272;5.136;2023-08-06T08:29:47;100644.75;;;16.01;100.00
64200;BME280;50516;52.272;5.136;2023-08-06T08:32:12;100640.88;;;16.02;100.00
64200;BME280;50516;52.272;5.136;2023-08-06T08:34:37;100645.75;;;16.05;100.00
64200;BME280;50516;52.272;5.136;2023-08-06T08:37:02;100637.19;;;15.93;100.00
64200;BME280;50516;52.272;5.136;2023-08-06T08:39:28;100642.97;;;15.82;100.00
64200;BME280;50516;52.272;5.136;2023-08-06T08:41:53;100643.06;;;15.91;100.00
64200;BME280;50516;52.272;5.136;2023-08-06T08:44:18;100642.13;;;15.96;100.00
64200;BME280;50516;52.272;5.136;2023-08-06T08:46:45;100642.78;;;16.01;100.00
64200;BME280;50516;52.272;5.136;2023-08-06T08:49:11;100639.97;;;15.93;100.00
64200;BME280;50516;52.272;5.136;2023-08-06T08:51:36;100639.34;;;15.96;100.00
64200;BME280;50516;52.272;5.136;2023-08-06T08:54:07;100642.44;;;15.94;100.00
64200;BME280;50516;52.272;5.136;2023-08-06T08:56:33;100635.44;;;15.97;100.00
64200;BME280;50516;52.272;5.136;2023-08-06T08:58:58;100644.66;;;15.92;100.00
64200;BME280;50516;52.272;5.136;2023-08-06T09:01:25;100650.66;;;15.85;100.00
64200;BME280;50516;52.272;5.136;2023-08-06T09:03:51;100653.19;;;15.96;100.00
64200;BME280;50516;52.272;5.136;2023-08-06T09:06:19;100651.41;;;16.00;100.00
64200;BME280;50516;52.272;5.136;2023-08-06T09:09:08;100656.72;;;15.87;100.00
64200;BME280;50516;52.272;5.136;2023-08-06T09:11:37;100663.88;;;15.88;100.00
64200;BME280;50516;52.272;5.136;2023-08-06T09:14:09;100659.78;;;15.86;100.00
64200;BME280;50516;52.272;5.136;2023-08-06T09:16:38;100662.81;;;15.98;100.00
64200;BME280;50516;52.272;5.136;2023-08-06T09:19:13;100665.19;;;15.91;100.00
64200;BME280;50516;52.272;5.136;2023-08-06T09:21:41;100678.94;;;15.82;100.00
64200;BME280;50516;52.272;5.136;2023-08-06T09:24:10;100676.84;;;15.79;100.00
64200;BME280;50516;52.272;5.136;2023-08-06T09:26:40;100689.41;;;15.85;100.00
64200;BME280;50516;52.272;5.136;2023-08-06T09:29:06;100686.59;;;15.99;100.00
64200;BME280;50516;52.272;5.136;2023-08-06T09:31:53;100676.22;;;16.05;100.00
64200;BME280;50516;52.272;5.136;2023-08-06T09:34:19;100692.78;;;15.96;100.00
64200;BME280;50516;52.272;5.136;2023-08-06T09:36:48;100693.09;;;16.17;100.00
64200;BME280;50516;52.272;5.136;2023-08-06T09:39:15;100695.13;;;16.25;100.00
64200;BME280;50516;52.272;5.136;2023-08-06T09:41:44;100706.06;;;16.08;100.00
64200;BME280;50516;52.272;5.136;2023-08-06T09:46:42;100711.38;;;16.18;100.00
64200;BME280;50516;52.272;5.136;2023-08-06T09:49:07;100707.38;;;16.11;100.00
64200;BME280;50516;52.272;5.136;2023-08-06T09:51:34;100705.84;;;16.18;100.00
64200;BME280;50516;52.272;5.136;2023-08-06T09:54:01;100712.75;;;16.07;100.00
64200;BME280;50516;52.272;5.136;2023-08-06T09:56:27;100723.38;;;16.14;100.00
64200;BME280;50516;52.272;5.136;2023-08-06T09:58:53;100713.25;;;16.09;100.00
64200;BME280;50516;52.272;5.136;2023-08-06T10:01:21;100713.75;;;16.11;100.00
64200;BME280;50516;52.272;5.136;2023-08-06T10:03:47;100717.44;;;16.06;100.00
64200;BME280;50516;52.272;5.136;2023-08-06T10:06:14;100718.00;;;15.95;100.00
64200;BME280;50516;52.272;5.136;2023-08-06T10:08:40;100724.63;;;16.08;100.00
64200;BME280;50516;52.272;5.136;2023-08-06T10:11:07;100721.66;;;16.04;100.00
64200;BME280;50516;52.272;5.136;2023-08-06T10:13:33;100721.50;;;16.23;100.00
64200;BME280;50516;52.272;5.136;2023-08-06T10:15:59;100724.19;;;16.14;100.00
64200;BME280;50516;52.272;5.136;2023-08-06T10:18:25;100726.09;;;16.28;100.00
64200;BME280;50516;52.272;5.136;2023-08-06T10:20:51;100725.47;;;16.31;100.00
64200;BME280;50516;52.272;5.136;2023-08-06T10:23:17;100725.38;;;16.36;100.00
64200;BME280;50516;52.272;5.136;2023-08-06T10:25:53;100723.09;;;16.38;100.00
64200;BME280;50516;52.272;5.136;2023-08-06T10:28:20;100731.84;;;16.31;100.00
64200;BME280;50516;52.272;5.136;2023-08-06T10:30:47;100728.94;;;16.36;100.00
64200;BME280;50516;52.272;5.136;2023-08-06T10:33:12;100723.72;;;16.35;100.00
64200;BME280;50516;52.272;5.136;2023-08-06T10:40:39;100739.28;;;16.08;100.00
64200;BME280;50516;52.272;5.136;2023-08-06T10:43:04;100743.41;;;16.11;100.00
64200;BME280;50516;52.272;5.136;2023-08-06T10:45:36;100750.34;;;16.22;100.00
64200;BME280;50516;52.272;5.136;2023-08-06T10:48:02;100749.25;;;16.09;100.00
64200;BME280;50516;52.272;5.136;2023-08-06T10:50:28;100734.38;;;16.05;100.00
64200;BME280;50516;52.272;5.136;2023-08-06T10:52:54;100743.78;;;16.18;100.00
64200;BME280;50516;52.272;5.136;2023-08-06T10:57:49;100747.59;;;16.08;100.00
64200;BME280;50516;52.272;5.136;2023-08-06T11:00:15;100742.59;;;16.10;100.00
64200;BME280;50516;52.272;5.136;2023-08-06T11:02:40;100752.13;;;16.04;100.00
64200;BME280;50516;52.272;5.136;2023-08-06T11:05:09;100752.75;;;16.01;100.00
64200;BME280;50516;52.272;5.136;2023-08-06T11:07:35;100748.69;;;16.21;100.00
64200;BME280;50516;52.272;5.136;2023-08-06T11:10:05;100748.50;;;16.17;100.00
64200;BME280;50516;52.272;5.136;2023-08-06T11:12:31;100755.56;;;16.23;100.00
64200;BME280;50516;52.272;5.136;2023-08-06T11:14:57;100752.03;;;16.32;100.00
64200;BME280;50516;52.272;5.136;2023-08-06T11:17:23;100761.41;;;16.58;100.00
64200;BME280;50516;52.272;5.136;2023-08-06T11:19:48;100757.34;;;16.65;100.00
64200;BME280;50516;52.272;5.136;2023-08-06T11:22:15;100757.09;;;16.75;100.00
64200;BME280;50516;52.272;5.136;2023-08-06T11:24:41;100764.53;;;16.88;100.00
64200;BME280;50516;52.272;5.136;2023-08-06T11:27:16;100764.91;;;16.95;100.00
64200;BME280;50516;52.272;5.136;2023-08-06T11:29:42;100763.13;;;17.00;100.00
64200;BME280;50516;52.272;5.136;2023-08-06T11:32:08;100763.00;;;16.82;100.00
64200;BME280;50516;52.272;5.136;2023-08-06T11:34:35;100764.41;;;16.93;100.00
64200;BME280;50516;52.272;5.136;2023-08-06T11:37:00;100769.50;;;17.00;100.00
64200;BME280;50516;52.272;5.136;2023-08-06T11:39:27;100774.50;;;16.89;100.00
64200;BME280;50516;52.272;5.136;2023-08-06T11:41:53;100782.19;;;16.92;100.00
64200;BME280;50516;52.272;5.136;2023-08-06T11:44:19;100776.31;;;16.94;100.00
64200;BME280;50516;52.272;5.136;2023-08-06T11:46:57;100774.56;;;16.98;100.00
64200;BME280;50516;52.272;5.136;2023-08-06T11:49:48;100780.66;;;17.09;100.00
64200;BME280;50516;52.272;5.136;2023-08-06T11:55:05;100779.88;;;17.17;100.00
64200;BME280;50516;52.272;5.136;2023-08-06T11:57:43;100791.78;;;17.18;100.00
64200;BME280;50516;52.272;5.136;2023-08-06T12:00:11;100790.25;;;17.03;100.00
64200;BME280;50516;52.272;5.136;2023-08-06T12:02:39;100781.59;;;17.04;100.00
64200;BME280;50516;52.272;5.136;2023-08-06T12:07:37;100782.97;;;17.15;100.00
64200;BME280;50516;52.272;5.136;2023-08-06T12:10:03;100786.22;;;17.09;100.00
64200;BME280;50516;52.272;5.136;2023-08-06T12:12:29;100785.59;;;17.21;100.00
64200;BME280;50516;52.272;5.136;2023-08-06T12:14:55;100783.31;;;17.23;100.00
64200;BME280;50516;52.272;5.136;2023-08-06T12:17:21;100791.06;;;17.34;100.00
64200;BME280;50516;52.272;5.136;2023-08-06T12:19:47;100790.59;;;17.41;100.00
64200;BME280;50516;52.272;5.136;2023-08-06T12:22:13;100789.50;;;17.51;100.00
64200;BME280;50516;52.272;5.136;2023-08-06T12:24:40;100796.03;;;17.55;100.00
64200;BME280;50516;52.272;5.136;2023-08-06T12:27:05;100788.06;;;17.62;100.00
64200;BME280;50516;52.272;5.136;2023-08-06T12:29:31;100790.41;;;17.78;100.00
64200;BME280;50516;52.272;5.136;2023-08-06T12:31:56;100798.84;;;17.64;99.85
64200;BME280;50516;52.272;5.136;2023-08-06T12:34:21;100785.53;;;17.83;99.98
64200;BME280;50516;52.272;5.136;2023-08-06T12:36:47;100800.28;;;17.93;98.97
64200;BME280;50516;52.272;5.136;2023-08-06T12:39:12;100785.91;;;17.99;99.77
64200;BME280;50516;52.272;5.136;2023-08-06T12:41:38;100792.13;;;18.05;98.97
64200;BME280;50516;52.272;5.136;2023-08-06T12:44:03;100797.50;;;18.01;98.24
64200;BME280;50516;52.272;5.136;2023-08-06T12:46:29;100805.03;;;18.10;98.68
64200;BME280;50516;52.272;5.136;2023-08-06T12:48:55;100799.00;;;18.16;98.29
64200;BME280;50516;52.272;5.136;2023-08-06T12:51:22;100806.03;;;18.14;98.73
64200;BME280;50516;52.272;5.136;2023-08-06T12:53:47;100817.75;;;17.93;99.32